sensor_id;sensor_type;location;lat;lon;timestamp;temperature;humidity
33841;DHT22;20142;28.494;-16.312;2022-12-16T00:01:26;16.00;90.40
33841;DHT22;20142;28.494;-16.312;2022-12-16T00:06:30;15.90;90.00
33841;DHT22;20142;28.494;-16.312;2022-12-16T00:11:34;15.90;90.00
33841;DHT22;20142;28.494;-16.312;2022-12-16T00:16:36;15.90;90.00
33841;DHT22;20142;28.494;-16.312;2022-12-16T00:21:37;16.00;90.40
33841;DHT22;20142;28.494;-16.312;2022-12-16T00:26:39;16.10;90.40
33841;DHT22;20142;28.494;-16.312;2022-12-16T00:31:40;16.10;89.90
33841;DHT22;20142;28.494;-16.312;2022-12-16T00:36:42;16.30;89.90
33841;DHT22;20142;28.494;-16.312;2022-12-16T00:41:44;16.30;89.30
33841;DHT22;20142;28.494;-16.312;2022-12-16T00:46:47;16.30;89.40
33841;DHT22;20142;28.494;-16.312;2022-12-16T00:51:49;16.30;88.90
33841;DHT22;20142;28.494;-16.312;2022-12-16T00:56:51;16.30;89.00
33841;DHT22;20142;28.494;-16.312;2022-12-16T01:01:52;16.30;88.60
33841;DHT22;20142;28.494;-16.312;2022-12-16T01:06:54;16.30;88.70
33841;DHT22;20142;28.494;-16.312;2022-12-16T01:11:55;16.20;88.30
33841;DHT22;20142;28.494;-16.312;2022-12-16T01:16:57;16.10;88.40
33841;DHT22;20142;28.494;-16.312;2022-12-16T01:21:59;16.10;88.60
33841;DHT22;20142;28.494;-16.312;2022-12-16T01:27:00;16.20;88.20
33841;DHT22;20142;28.494;-16.312;2022-12-16T01:32:02;16.10;88.30
33841;DHT22;20142;28.494;-16.312;2022-12-16T01:37:04;16.10;88.30
33841;DHT22;20142;28.494;-16.312;2022-12-16T01:42:14;15.90;88.10
33841;DHT22;20142;28.494;-16.312;2022-12-16T01:47:30;15.90;88.70
33841;DHT22;20142;28.494;-16.312;2022-12-16T01:52:36;15.80;88.40
33841;DHT22;20142;28.494;-16.312;2022-12-16T01:57:47;16.00;88.10
33841;DHT22;20142;28.494;-16.312;2022-12-16T02:02:54;15.80;87.70
33841;DHT22;20142;28.494;-16.312;2022-12-16T02:18:56;15.60;88.70
33841;DHT22;20142;28.494;-16.312;2022-12-16T02:30:02;15.60;88.60
33841;DHT22;20142;28.494;-16.312;2022-12-16T02:35:25;15.60;89.20
33841;DHT22;20142;28.494;-16.312;2022-12-16T02:40:59;15.70;88.90
33841;DHT22;20142;28.494;-16.312;2022-12-16T02:46:04;15.80;88.80
33841;DHT22;20142;28.494;-16.312;2022-12-16T02:51:07;15.70;88.60
33841;DHT22;20142;28.494;-16.312;2022-12-16T02:56:34;15.60;89.20
33841;DHT22;20142;28.494;-16.312;2022-12-16T03:01:50;15.40;89.00
33841;DHT22;20142;28.494;-16.312;2022-12-16T03:06:59;15.30;90.00
33841;DHT22;20142;28.494;-16.312;2022-12-16T03:12:04;15.20;90.90
33841;DHT22;20142;28.494;-16.312;2022-12-16T03:17:09;15.40;91.20
33841;DHT22;20142;28.494;-16.312;2022-12-16T03:22:19;15.50;90.30
33841;DHT22;20142;28.494;-16.312;2022-12-16T03:32:48;15.90;89.70
33841;DHT22;20142;28.494;-16.312;2022-12-16T03:37:54;15.80;89.50
33841;DHT22;20142;28.494;-16.312;2022-12-16T03:42:59;15.70;89.70
33841;DHT22;20142;28.494;-16.312;2022-12-16T03:48:01;15.80;89.80
33841;DHT22;20142;28.494;-16.312;2022-12-16T03:53:04;15.70;88.90
33841;DHT22;20142;28.494;-16.312;2022-12-16T03:58:06;15.70;89.30
33841;DHT22;20142;28.494;-16.312;2022-12-16T04:03:08;15.60;89.40
33841;DHT22;20142;28.494;-16.312;2022-12-16T04:08:10;15.60;89.50
33841;DHT22;20142;28.494;-16.312;2022-12-16T04:13:11;15.70;89.60
33841;DHT22;20142;28.494;-16.312;2022-12-16T04:18:32;15.80;89.90
33841;DHT22;20142;28.494;-16.312;2022-12-16T04:23:55;15.80;89.40
33841;DHT22;20142;28.494;-16.312;2022-12-16T04:29:16;15.80;88.80
33841;DHT22;20142;28.494;-16.312;2022-12-16T04:34:18;15.80;89.20
33841;DHT22;20142;28.494;-16.312;2022-12-16T04:39:27;15.80;88.50
33841;DHT22;20142;28.494;-16.312;2022-12-16T04:44:47;15.60;88.20
33841;DHT22;20142;28.494;-16.312;2022-12-16T04:50:07;15.60;88.10
33841;DHT22;20142;28.494;-16.312;2022-12-16T04:55:28;15.50;88.30
33841;DHT22;20142;28.494;-16.312;2022-12-16T05:00:48;15.50;88.20
33841;DHT22;20142;28.494;-16.312;2022-12-16T05:06:09;15.50;88.10
33841;DHT22;20142;28.494;-16.312;2022-12-16T05:11:29;15.40;88.20
33841;DHT22;20142;28.494;-16.312;2022-12-16T05:16:49;15.30;88.20
33841;DHT22;20142;28.494;-16.312;2022-12-16T05:22:09;15.20;88.30
33841;DHT22;20142;28.494;-16.312;2022-12-16T05:27:30;15.10;88.60
33841;DHT22;20142;28.494;-16.312;2022-12-16T05:32:50;15.20;88.30
33841;DHT22;20142;28.494;-16.312;2022-12-16T05:38:10;15.00;88.20
33841;DHT22;20142;28.494;-16.312;2022-12-16T05:43:34;15.10;88.50
33841;DHT22;20142;28.494;-16.312;2022-12-16T05:48:55;15.10;88.00
33841;DHT22;20142;28.494;-16.312;2022-12-16T05:54:14;15.10;88.20
33841;DHT22;20142;28.494;-16.312;2022-12-16T05:59:35;15.10;88.00
33841;DHT22;20142;28.494;-16.312;2022-12-16T06:04:54;14.90;87.80
33841;DHT22;20142;28.494;-16.312;2022-12-16T06:10:15;15.00;87.80
33841;DHT22;20142;28.494;-16.312;2022-12-16T06:15:34;14.90;88.10
33841;DHT22;20142;28.494;-16.312;2022-12-16T06:20:54;15.10;88.00
33841;DHT22;20142;28.494;-16.312;2022-12-16T06:26:15;15.20;88.00
33841;DHT22;20142;28.494;-16.312;2022-12-16T06:31:35;15.20;87.70
33841;DHT22;20142;28.494;-16.312;2022-12-16T06:36:55;15.30;87.80
33841;DHT22;20142;28.494;-16.312;2022-12-16T06:42:15;15.10;87.80
33841;DHT22;20142;28.494;-16.312;2022-12-16T06:47:35;15.20;88.00
33841;DHT22;20142;28.494;-16.312;2022-12-16T06:52:55;15.20;87.40
33841;DHT22;20142;28.494;-16.312;2022-12-16T06:58:15;15.00;87.00
33841;DHT22;20142;28.494;-16.312;2022-12-16T07:03:35;14.90;87.40
33841;DHT22;20142;28.494;-16.312;2022-12-16T07:08:55;14.80;88.00
33841;DHT22;20142;28.494;-16.312;2022-12-16T07:14:15;14.80;88.50
33841;DHT22;20142;28.494;-16.312;2022-12-16T07:19:35;15.00;89.00
33841;DHT22;20142;28.494;-16.312;2022-12-16T07:24:55;14.90;89.30
33841;DHT22;20142;28.494;-16.312;2022-12-16T07:30:15;15.00;89.80
33841;DHT22;20142;28.494;-16.312;2022-12-16T07:35:35;15.00;89.60
33841;DHT22;20142;28.494;-16.312;2022-12-16T07:40:55;15.10;89.70
33841;DHT22;20142;28.494;-16.312;2022-12-16T07:46:15;15.20;89.40
33841;DHT22;20142;28.494;-16.312;2022-12-16T07:51:35;15.30;89.60
33841;DHT22;20142;28.494;-16.312;2022-12-16T07:56:55;15.60;89.10
33841;DHT22;20142;28.494;-16.312;2022-12-16T08:02:15;15.70;88.80
33841;DHT22;20142;28.494;-16.312;2022-12-16T08:07:39;15.70;88.50
33841;DHT22;20142;28.494;-16.312;2022-12-16T08:13:04;15.70;88.00
33841;DHT22;20142;28.494;-16.312;2022-12-16T08:18:24;15.70;88.10
33841;DHT22;20142;28.494;-16.312;2022-12-16T08:23:44;15.60;88.30
33841;DHT22;20142;28.494;-16.312;2022-12-16T08:29:04;15.60;88.50
33841;DHT22;20142;28.494;-16.312;2022-12-16T08:34:24;15.60;88.30
33841;DHT22;20142;28.494;-16.312;2022-12-16T08:39:44;15.70;88.20
33841;DHT22;20142;28.494;-16.312;2022-12-16T08:45:21;15.70;88.30
33841;DHT22;20142;28.494;-16.312;2022-12-16T08:50:41;15.80;87.90
33841;DHT22;20142;28.494;-16.312;2022-12-16T08:56:18;15.70;87.90
33841;DHT22;20142;28.494;-16.312;2022-12-16T09:01:39;15.80;87.50
33841;DHT22;20142;28.494;-16.312;2022-12-16T09:06:58;15.90;87.00
33841;DHT22;20142;28.494;-16.312;2022-12-16T09:12:19;16.10;87.10
33841;DHT22;20142;28.494;-16.312;2022-12-16T09:17:38;16.30;86.40
33841;DHT22;20142;28.494;-16.312;2022-12-16T09:23:18;16.60;86.40
33841;DHT22;20142;28.494;-16.312;2022-12-16T09:28:40;16.80;85.50
33841;DHT22;20142;28.494;-16.312;2022-12-16T09:34:00;16.80;85.10
33841;DHT22;20142;28.494;-16.312;2022-12-16T09:39:20;17.00;84.50
33841;DHT22;20142;28.494;-16.312;2022-12-16T09:44:46;17.00;84.00
33841;DHT22;20142;28.494;-16.312;2022-12-16T09:50:30;17.20;83.10
33841;DHT22;20142;28.494;-16.312;2022-12-16T09:55:51;17.40;82.50
33841;DHT22;20142;28.494;-16.312;2022-12-16T10:01:13;17.50;82.20
33841;DHT22;20142;28.494;-16.312;2022-12-16T10:06:51;17.80;82.50
33841;DHT22;20142;28.494;-16.312;2022-12-16T10:13:01;18.10;82.50
33841;DHT22;20142;28.494;-16.312;2022-12-16T10:18:23;18.60;81.10
33841;DHT22;20142;28.494;-16.312;2022-12-16T10:30:11;18.70;80.20
33841;DHT22;20142;28.494;-16.312;2022-12-16T10:35:46;18.70;80.00
33841;DHT22;20142;28.494;-16.312;2022-12-16T10:41:08;18.70;79.80
33841;DHT22;20142;28.494;-16.312;2022-12-16T10:46:33;18.70;79.60
33841;DHT22;20142;28.494;-16.312;2022-12-16T10:51:54;18.90;79.10
33841;DHT22;20142;28.494;-16.312;2022-12-16T10:57:15;19.20;79.00
33841;DHT22;20142;28.494;-16.312;2022-12-16T11:02:37;18.90;78.60
33841;DHT22;20142;28.494;-16.312;2022-12-16T11:07:57;18.80;79.00
33841;DHT22;20142;28.494;-16.312;2022-12-16T11:13:33;18.80;78.80
33841;DHT22;20142;28.494;-16.312;2022-12-16T11:18:55;18.90;78.80
33841;DHT22;20142;28.494;-16.312;2022-12-16T11:24:18;19.10;79.20
33841;DHT22;20142;28.494;-16.312;2022-12-16T11:29:49;19.20;78.30
33841;DHT22;20142;28.494;-16.312;2022-12-16T11:35:18;19.20;78.40
33841;DHT22;20142;28.494;-16.312;2022-12-16T11:40:40;19.30;78.70
33841;DHT22;20142;28.494;-16.312;2022-12-16T11:46:04;19.30;78.40
33841;DHT22;20142;28.494;-16.312;2022-12-16T11:51:31;19.50;78.80
33841;DHT22;20142;28.494;-16.312;2022-12-16T11:56:53;19.50;78.50
33841;DHT22;20142;28.494;-16.312;2022-12-16T12:02:22;19.30;78.50
33841;DHT22;20142;28.494;-16.312;2022-12-16T12:13:51;19.30;79.00
33841;DHT22;20142;28.494;-16.312;2022-12-16T12:19:29;19.50;78.70
33841;DHT22;20142;28.494;-16.312;2022-12-16T12:25:09;19.50;78.30
33841;DHT22;20142;28.494;-16.312;2022-12-16T12:31:01;19.30;78.40
33841;DHT22;20142;28.494;-16.312;2022-12-16T12:36:29;19.30;78.40
33841;DHT22;20142;28.494;-16.312;2022-12-16T12:47:25;19.80;78.80
33841;DHT22;20142;28.494;-16.312;2022-12-16T12:58:40;20.50;77.60
33841;DHT22;20142;28.494;-16.312;2022-12-16T13:04:11;20.20;77.60
33841;DHT22;20142;28.494;-16.312;2022-12-16T13:09:37;20.10;77.70
33841;DHT22;20142;28.494;-16.312;2022-12-16T13:25:52;20.20;78.00
33841;DHT22;20142;28.494;-16.312;2022-12-16T13:31:12;20.20;77.80
33841;DHT22;20142;28.494;-16.312;2022-12-16T13:36:33;20.10;77.90
33841;DHT22;20142;28.494;-16.312;2022-12-16T13:41:58;20.20;77.80
33841;DHT22;20142;28.494;-16.312;2022-12-16T13:53:14;19.80;78.10
33841;DHT22;20142;28.494;-16.312;2022-12-16T13:58:38;19.50;78.60
33841;DHT22;20142;28.494;-16.312;2022-12-16T14:04:01;20.00;78.60
33841;DHT22;20142;28.494;-16.312;2022-12-16T14:09:42;20.40;78.20
33841;DHT22;20142;28.494;-16.312;2022-12-16T14:15:15;20.80;77.90
33841;DHT22;20142;28.494;-16.312;2022-12-16T14:20:49;21.00;77.10
33841;DHT22;20142;28.494;-16.312;2022-12-16T14:26:14;21.00;76.40
33841;DHT22;20142;28.494;-16.312;2022-12-16T14:31:37;20.50;78.20
33841;DHT22;20142;28.494;-16.312;2022-12-16T14:36:59;20.40;78.00
33841;DHT22;20142;28.494;-16.312;2022-12-16T14:42:21;20.30;78.00
33841;DHT22;20142;28.494;-16.312;2022-12-16T14:47:48;20.60;78.10
33841;DHT22;20142;28.494;-16.312;2022-12-16T14:53:22;21.10;76.90
33841;DHT22;20142;28.494;-16.312;2022-12-16T14:58:43;21.30;76.40
33841;DHT22;20142;28.494;-16.312;2022-12-16T15:04:07;21.20;76.50
33841;DHT22;20142;28.494;-16.312;2022-12-16T15:09:47;21.00;77.20
33841;DHT22;20142;28.494;-16.312;2022-12-16T15:15:32;20.70;77.60
33841;DHT22;20142;28.494;-16.312;2022-12-16T15:20:56;21.00;77.20
33841;DHT22;20142;28.494;-16.312;2022-12-16T15:26:23;20.30;78.10
33841;DHT22;20142;28.494;-16.312;2022-12-16T15:31:44;21.50;78.00
33841;DHT22;20142;28.494;-16.312;2022-12-16T15:42:41;22.30;73.10
33841;DHT22;20142;28.494;-16.312;2022-12-16T15:48:11;20.60;76.50
33841;DHT22;20142;28.494;-16.312;2022-12-16T15:53:37;25.00;70.70
33841;DHT22;20142;28.494;-16.312;2022-12-16T15:59:22;22.30;73.20
33841;DHT22;20142;28.494;-16.312;2022-12-16T16:04:47;21.70;73.70
33841;DHT22;20142;28.494;-16.312;2022-12-16T16:10:14;21.70;75.50
33841;DHT22;20142;28.494;-16.312;2022-12-16T16:15:34;21.80;74.50
33841;DHT22;20142;28.494;-16.312;2022-12-16T16:20:54;21.50;74.50
33841;DHT22;20142;28.494;-16.312;2022-12-16T16:26:15;20.30;75.70
33841;DHT22;20142;28.494;-16.312;2022-12-16T16:31:36;19.60;77.20
33841;DHT22;20142;28.494;-16.312;2022-12-16T16:36:56;19.20;77.40
33841;DHT22;20142;28.494;-16.312;2022-12-16T16:42:16;18.70;78.00
33841;DHT22;20142;28.494;-16.312;2022-12-16T16:47:36;18.60;78.50
33841;DHT22;20142;28.494;-16.312;2022-12-16T16:52:56;18.80;78.80
33841;DHT22;20142;28.494;-16.312;2022-12-16T16:58:25;18.70;78.90
33841;DHT22;20142;28.494;-16.312;2022-12-16T17:03:46;18.80;79.50
33841;DHT22;20142;28.494;-16.312;2022-12-16T17:09:06;18.60;79.60
33841;DHT22;20142;28.494;-16.312;2022-12-16T17:14:26;18.70;79.60
33841;DHT22;20142;28.494;-16.312;2022-12-16T17:19:46;18.90;79.60
33841;DHT22;20142;28.494;-16.312;2022-12-16T17:25:07;18.60;79.70
33841;DHT22;20142;28.494;-16.312;2022-12-16T17:30:27;18.80;80.30
33841;DHT22;20142;28.494;-16.312;2022-12-16T17:35:48;18.70;80.30
33841;DHT22;20142;28.494;-16.312;2022-12-16T17:41:09;18.60;80.80
33841;DHT22;20142;28.494;-16.312;2022-12-16T17:46:29;18.50;81.10
33841;DHT22;20142;28.494;-16.312;2022-12-16T17:51:49;18.40;81.30
33841;DHT22;20142;28.494;-16.312;2022-12-16T17:57:09;18.40;81.50
33841;DHT22;20142;28.494;-16.312;2022-12-16T18:02:29;18.30;81.20
33841;DHT22;20142;28.494;-16.312;2022-12-16T18:07:49;18.10;82.10
33841;DHT22;20142;28.494;-16.312;2022-12-16T18:13:09;18.00;82.40
33841;DHT22;20142;28.494;-16.312;2022-12-16T18:18:30;18.00;82.20
33841;DHT22;20142;28.494;-16.312;2022-12-16T18:23:53;17.90;82.60
33841;DHT22;20142;28.494;-16.312;2022-12-16T18:29:13;17.90;83.00
33841;DHT22;20142;28.494;-16.312;2022-12-16T18:34:33;17.80;83.10
33841;DHT22;20142;28.494;-16.312;2022-12-16T18:39:53;17.70;82.60
33841;DHT22;20142;28.494;-16.312;2022-12-16T18:45:13;17.50;83.10
33841;DHT22;20142;28.494;-16.312;2022-12-16T18:50:33;17.40;83.40
33841;DHT22;20142;28.494;-16.312;2022-12-16T18:55:59;17.40;83.80
33841;DHT22;20142;28.494;-16.312;2022-12-16T19:01:20;17.40;83.80
33841;DHT22;20142;28.494;-16.312;2022-12-16T19:06:49;17.50;83.40
33841;DHT22;20142;28.494;-16.312;2022-12-16T19:12:09;17.20;83.40
33841;DHT22;20142;28.494;-16.312;2022-12-16T19:17:29;17.40;84.00
33841;DHT22;20142;28.494;-16.312;2022-12-16T19:22:49;17.40;83.70
33841;DHT22;20142;28.494;-16.312;2022-12-16T19:28:12;17.40;84.00
33841;DHT22;20142;28.494;-16.312;2022-12-16T19:33:33;17.50;83.90
33841;DHT22;20142;28.494;-16.312;2022-12-16T19:38:53;17.60;84.10
33841;DHT22;20142;28.494;-16.312;2022-12-16T19:44:13;17.70;84.30
33841;DHT22;20142;28.494;-16.312;2022-12-16T19:49:33;17.70;84.00
33841;DHT22;20142;28.494;-16.312;2022-12-16T19:54:52;17.50;84.50
33841;DHT22;20142;28.494;-16.312;2022-12-16T20:00:13;17.40;84.90
33841;DHT22;20142;28.494;-16.312;2022-12-16T20:05:33;17.40;85.30
33841;DHT22;20142;28.494;-16.312;2022-12-16T20:10:53;17.50;85.10
33841;DHT22;20142;28.494;-16.312;2022-12-16T20:16:13;17.30;85.00
33841;DHT22;20142;28.494;-16.312;2022-12-16T20:21:33;17.10;85.40
33841;DHT22;20142;28.494;-16.312;2022-12-16T20:26:53;17.20;85.70
33841;DHT22;20142;28.494;-16.312;2022-12-16T20:32:13;17.20;85.60
33841;DHT22;20142;28.494;-16.312;2022-12-16T20:37:32;17.20;85.80
33841;DHT22;20142;28.494;-16.312;2022-12-16T20:42:52;17.10;86.30
33841;DHT22;20142;28.494;-16.312;2022-12-16T20:48:14;17.10;86.50
33841;DHT22;20142;28.494;-16.312;2022-12-16T20:53:34;17.20;86.70
33841;DHT22;20142;28.494;-16.312;2022-12-16T20:58:54;17.10;86.50
33841;DHT22;20142;28.494;-16.312;2022-12-16T21:04:14;17.20;87.10
33841;DHT22;20142;28.494;-16.312;2022-12-16T21:09:34;17.20;87.10
33841;DHT22;20142;28.494;-16.312;2022-12-16T21:14:54;17.20;87.20
33841;DHT22;20142;28.494;-16.312;2022-12-16T21:20:14;17.20;87.00
33841;DHT22;20142;28.494;-16.312;2022-12-16T21:25:35;17.00;87.40
33841;DHT22;20142;28.494;-16.312;2022-12-16T21:30:56;16.90;87.40
33841;DHT22;20142;28.494;-16.312;2022-12-16T21:36:17;16.90;87.50
33841;DHT22;20142;28.494;-16.312;2022-12-16T21:41:36;17.00;87.90
33841;DHT22;20142;28.494;-16.312;2022-12-16T21:46:57;17.00;87.60
33841;DHT22;20142;28.494;-16.312;2022-12-16T21:52:17;16.90;87.50
33841;DHT22;20142;28.494;-16.312;2022-12-16T21:57:36;16.90;87.50
33841;DHT22;20142;28.494;-16.312;2022-12-16T22:02:57;16.90;87.80
33841;DHT22;20142;28.494;-16.312;2022-12-16T22:08:17;16.80;87.60
33841;DHT22;20142;28.494;-16.312;2022-12-16T22:13:36;16.80;87.80
33841;DHT22;20142;28.494;-16.312;2022-12-16T22:18:57;16.80;87.80
33841;DHT22;20142;28.494;-16.312;2022-12-16T22:24:16;16.80;87.90
33841;DHT22;20142;28.494;-16.312;2022-12-16T22:29:37;16.90;88.10
33841;DHT22;20142;28.494;-16.312;2022-12-16T22:34:56;16.90;87.80
33841;DHT22;20142;28.494;-16.312;2022-12-16T22:40:16;16.90;88.10
33841;DHT22;20142;28.494;-16.312;2022-12-16T22:45:36;16.90;87.80
33841;DHT22;20142;28.494;-16.312;2022-12-16T22:50:56;16.90;88.00
33841;DHT22;20142;28.494;-16.312;2022-12-16T22:56:16;16.80;88.00
33841;DHT22;20142;28.494;-16.312;2022-12-16T23:01:36;16.70;88.20
33841;DHT22;20142;28.494;-16.312;2022-12-16T23:06:57;16.70;88.00
33841;DHT22;20142;28.494;-16.312;2022-12-16T23:12:17;16.80;88.20
33841;DHT22;20142;28.494;-16.312;2022-12-16T23:17:37;16.80;88.20
33841;DHT22;20142;28.494;-16.312;2022-12-16T23:22:57;16.80;88.40
33841;DHT22;20142;28.494;-16.312;2022-12-16T23:28:17;16.80;88.30
33841;DHT22;20142;28.494;-16.312;2022-12-16T23:33:37;16.80;88.20
33841;DHT22;20142;28.494;-16.312;2022-12-16T23:38:57;16.90;88.00
33841;DHT22;20142;28.494;-16.312;2022-12-16T23:44:17;16.80;88.10
33841;DHT22;20142;28.494;-16.312;2022-12-16T23:49:37;16.80;88.40
33841;DHT22;20142;28.494;-16.312;2022-12-16T23:54:57;16.80;88.10
